sensor_id;sensor_type;location;lat;lon;timestamp;pressure;altitude;pressure_sealevel;temperature
68446;BMP280;35789;48.414;12.768;2023-08-31T00:00:00;96410.0;;;
68446;BMP280;35789;48.414;12.768;2023-08-31T00:05:00;96410.0;;;
68446;BMP280;35789;48.414;12.768;2023-08-31T00:10:00;96410.0;;;
68446;BMP280;35789;48.414;12.768;2023-08-31T00:15:00;96410.0;;;
68446;BMP280;35789;48.414;12.768;2023-08-31T00:20:01;96420.0;;;
68446;BMP280;35789;48.414;12.768;2023-08-31T00:25:00;96420.0;;;
68446;BMP280;35789;48.414;12.768;2023-08-31T00:30:00;96420.0;;;
68446;BMP280;35789;48.414;12.768;2023-08-31T00:35:00;96420.0;;;
68446;BMP280;35789;48.414;12.768;2023-08-31T00:40:00;96430.0;;;
68446;BMP280;35789;48.414;12.768;2023-08-31T00:45:00;96430.0;;;
68446;BMP280;35789;48.414;12.768;2023-08-31T00:50:00;96430.0;;;
68446;BMP280;35789;48.414;12.768;2023-08-31T00:55:03;96430.0;;;
68446;BMP280;35789;48.414;12.768;2023-08-31T01:00:00;96440.0;;;
68446;BMP280;35789;48.414;12.768;2023-08-31T01:05:08;96440.0;;;
68446;BMP280;35789;48.414;12.768;2023-08-31T01:10:10;96440.0;;;
68446;BMP280;35789;48.414;12.768;2023-08-31T01:15:04;96430.0;;;
68446;BMP280;35789;48.414;12.768;2023-08-31T01:20:02;96440.0;;;
68446;BMP280;35789;48.414;12.768;2023-08-31T01:25:01;96450.0;;;
68446;BMP280;35789;48.414;12.768;2023-08-31T01:30:01;96450.0;;;
68446;BMP280;35789;48.414;12.768;2023-08-31T01:35:02;96460.0;;;
68446;BMP280;35789;48.414;12.768;2023-08-31T01:40:07;96460.0;;;
68446;BMP280;35789;48.414;12.768;2023-08-31T01:45:01;96460.0;;;
68446;BMP280;35789;48.414;12.768;2023-08-31T01:50:00;96470.0;;;
68446;BMP280;35789;48.414;12.768;2023-08-31T01:55:00;96470.0;;;
68446;BMP280;35789;48.414;12.768;2023-08-31T02:00:00;96470.0;;;
68446;BMP280;35789;48.414;12.768;2023-08-31T02:05:01;96480.0;;;
68446;BMP280;35789;48.414;12.768;2023-08-31T02:10:00;96470.0;;;
68446;BMP280;35789;48.414;12.768;2023-08-31T02:15:00;96480.0;;;
68446;BMP280;35789;48.414;12.768;2023-08-31T02:20:00;96490.0;;;
68446;BMP280;35789;48.414;12.768;2023-08-31T02:25:01;96490.0;;;
68446;BMP280;35789;48.414;12.768;2023-08-31T02:30:00;96480.0;;;
68446;BMP280;35789;48.414;12.768;2023-08-31T02:35:00;96490.0;;;
68446;BMP280;35789;48.414;12.768;2023-08-31T02:40:00;96500.0;;;
68446;BMP280;35789;48.414;12.768;2023-08-31T02:45:00;96500.0;;;
68446;BMP280;35789;48.414;12.768;2023-08-31T02:50:00;96490.0;;;
68446;BMP280;35789;48.414;12.768;2023-08-31T02:55:00;96500.0;;;
68446;BMP280;35789;48.414;12.768;2023-08-31T03:00:00;96500.0;;;
68446;BMP280;35789;48.414;12.768;2023-08-31T03:05:00;96490.0;;;
68446;BMP280;35789;48.414;12.768;2023-08-31T03:10:00;96490.0;;;
68446;BMP280;35789;48.414;12.768;2023-08-31T03:15:00;96490.0;;;
68446;BMP280;35789;48.414;12.768;2023-08-31T03:20:00;96510.0;;;
68446;BMP280;35789;48.414;12.768;2023-08-31T03:25:00;96520.0;;;
68446;BMP280;35789;48.414;12.768;2023-08-31T03:30:00;96530.0;;;
68446;BMP280;35789;48.414;12.768;2023-08-31T03:35:02;96540.0;;;
68446;BMP280;35789;48.414;12.768;2023-08-31T03:40:00;96550.0;;;
68446;BMP280;35789;48.414;12.768;2023-08-31T03:45:00;96540.0;;;
68446;BMP280;35789;48.414;12.768;2023-08-31T03:50:00;96540.0;;;
68446;BMP280;35789;48.414;12.768;2023-08-31T03:55:00;96540.0;;;
68446;BMP280;35789;48.414;12.768;2023-08-31T04:00:00;96540.0;;;
68446;BMP280;35789;48.414;12.768;2023-08-31T04:05:00;96550.0;;;
68446;BMP280;35789;48.414;12.768;2023-08-31T04:10:00;96540.0;;;
68446;BMP280;35789;48.414;12.768;2023-08-31T04:15:00;96540.0;;;
68446;BMP280;35789;48.414;12.768;2023-08-31T04:20:00;96530.0;;;
68446;BMP280;35789;48.414;12.768;2023-08-31T04:25:00;96550.0;;;
68446;BMP280;35789;48.414;12.768;2023-08-31T04:30:01;96560.0;;;
68446;BMP280;35789;48.414;12.768;2023-08-31T04:35:01;96530.0;;;
68446;BMP280;35789;48.414;12.768;2023-08-31T04:40:00;96560.0;;;
68446;BMP280;35789;48.414;12.768;2023-08-31T04:45:00;96580.0;;;
68446;BMP280;35789;48.414;12.768;2023-08-31T04:50:00;96590.0;;;
68446;BMP280;35789;48.414;12.768;2023-08-31T04:55:01;96600.0;;;
68446;BMP280;35789;48.414;12.768;2023-08-31T05:00:00;96610.0;;;
68446;BMP280;35789;48.414;12.768;2023-08-31T05:05:00;96610.0;;;
68446;BMP280;35789;48.414;12.768;2023-08-31T05:10:00;96600.0;;;
68446;BMP280;35789;48.414;12.768;2023-08-31T05:15:01;96610.0;;;
68446;BMP280;35789;48.414;12.768;2023-08-31T05:20:00;96620.0;;;
68446;BMP280;35789;48.414;12.768;2023-08-31T05:25:00;96630.0;;;
68446;BMP280;35789;48.414;12.768;2023-08-31T05:30:00;96630.0;;;
68446;BMP280;35789;48.414;12.768;2023-08-31T05:35:00;96640.0;;;
68446;BMP280;35789;48.414;12.768;2023-08-31T05:40:00;96640.0;;;
68446;BMP280;35789;48.414;12.768;2023-08-31T05:45:00;96650.0;;;
68446;BMP280;35789;48.414;12.768;2023-08-31T05:50:00;96650.0;;;
68446;BMP280;35789;48.414;12.768;2023-08-31T05:55:00;96660.0;;;
68446;BMP280;35789;48.414;12.768;2023-08-31T06:00:00;96660.0;;;
68446;BMP280;35789;48.414;12.768;2023-08-31T06:05:00;96680.0;;;
68446;BMP280;35789;48.414;12.768;2023-08-31T06:10:00;96680.0;;;
68446;BMP280;35789;48.414;12.768;2023-08-31T06:15:00;96680.0;;;
68446;BMP280;35789;48.414;12.768;2023-08-31T06:20:00;96680.0;;;
68446;BMP280;35789;48.414;12.768;2023-08-31T06:25:00;96700.0;;;
68446;BMP280;35789;48.414;12.768;2023-08-31T06:30:00;96700.0;;;
68446;BMP280;35789;48.414;12.768;2023-08-31T06:35:00;96710.0;;;
68446;BMP280;35789;48.414;12.768;2023-08-31T06:40:00;96690.0;;;
68446;BMP280;35789;48.414;12.768;2023-08-31T06:45:00;96700.0;;;
68446;BMP280;35789;48.414;12.768;2023-08-31T06:50:00;96700.0;;;
68446;BMP280;35789;48.414;12.768;2023-08-31T06:55:00;96720.0;;;
68446;BMP280;35789;48.414;12.768;2023-08-31T07:00:00;96720.0;;;
68446;BMP280;35789;48.414;12.768;2023-08-31T07:05:00;96720.0;;;
68446;BMP280;35789;48.414;12.768;2023-08-31T07:10:00;96710.0;;;
68446;BMP280;35789;48.414;12.768;2023-08-31T07:15:00;96710.0;;;
68446;BMP280;35789;48.414;12.768;2023-08-31T07:20:00;96710.0;;;
68446;BMP280;35789;48.414;12.768;2023-08-31T07:25:00;96720.0;;;
68446;BMP280;35789;48.414;12.768;2023-08-31T07:30:00;96730.0;;;
68446;BMP280;35789;48.414;12.768;2023-08-31T07:35:00;96740.0;;;
68446;BMP280;35789;48.414;12.768;2023-08-31T07:40:00;96740.0;;;
68446;BMP280;35789;48.414;12.768;2023-08-31T07:45:00;96750.0;;;
68446;BMP280;35789;48.414;12.768;2023-08-31T07:50:00;96760.0;;;
68446;BMP280;35789;48.414;12.768;2023-08-31T07:55:01;96760.0;;;
68446;BMP280;35789;48.414;12.768;2023-08-31T08:00:00;96760.0;;;
68446;BMP280;35789;48.414;12.768;2023-08-31T08:05:00;96760.0;;;
68446;BMP280;35789;48.414;12.768;2023-08-31T08:10:00;96770.0;;;
68446;BMP280;35789;48.414;12.768;2023-08-31T08:15:00;96780.0;;;
68446;BMP280;35789;48.414;12.768;2023-08-31T08:20:00;96780.0;;;
68446;BMP280;35789;48.414;12.768;2023-08-31T08:25:00;96790.0;;;
68446;BMP280;35789;48.414;12.768;2023-08-31T08:30:00;96800.0;;;
68446;BMP280;35789;48.414;12.768;2023-08-31T08:35:00;96820.0;;;
68446;BMP280;35789;48.414;12.768;2023-08-31T08:40:01;96820.0;;;
68446;BMP280;35789;48.414;12.768;2023-08-31T08:45:01;96820.0;;;
68446;BMP280;35789;48.414;12.768;2023-08-31T08:50:01;96810.0;;;
68446;BMP280;35789;48.414;12.768;2023-08-31T08:55:01;96810.0;;;
68446;BMP280;35789;48.414;12.768;2023-08-31T09:00:00;96810.0;;;
68446;BMP280;35789;48.414;12.768;2023-08-31T09:05:00;96820.0;;;
68446;BMP280;35789;48.414;12.768;2023-08-31T09:10:00;96830.0;;;
68446;BMP280;35789;48.414;12.768;2023-08-31T09:15:02;96830.0;;;
68446;BMP280;35789;48.414;12.768;2023-08-31T09:20:01;96800.0;;;
68446;BMP280;35789;48.414;12.768;2023-08-31T09:25:01;96820.0;;;
68446;BMP280;35789;48.414;12.768;2023-08-31T09:30:01;96820.0;;;
68446;BMP280;35789;48.414;12.768;2023-08-31T09:35:00;96830.0;;;
68446;BMP280;35789;48.414;12.768;2023-08-31T09:40:02;96830.0;;;
68446;BMP280;35789;48.414;12.768;2023-08-31T09:45:00;96830.0;;;
68446;BMP280;35789;48.414;12.768;2023-08-31T09:50:02;96840.0;;;
68446;BMP280;35789;48.414;12.768;2023-08-31T09:55:02;96830.0;;;
68446;BMP280;35789;48.414;12.768;2023-08-31T10:00:00;96840.0;;;
68446;BMP280;35789;48.414;12.768;2023-08-31T10:05:00;96830.0;;;
68446;BMP280;35789;48.414;12.768;2023-08-31T10:10:01;96820.0;;;
68446;BMP280;35789;48.414;12.768;2023-08-31T10:15:01;96830.0;;;
68446;BMP280;35789;48.414;12.768;2023-08-31T10:20:00;96820.0;;;
68446;BMP280;35789;48.414;12.768;2023-08-31T10:25:02;96810.0;;;
68446;BMP280;35789;48.414;12.768;2023-08-31T10:30:25;96820.0;;;
68446;BMP280;35789;48.414;12.768;2023-08-31T10:35:05;96820.0;;;
68446;BMP280;35789;48.414;12.768;2023-08-31T10:40:09;96830.0;;;
68446;BMP280;35789;48.414;12.768;2023-08-31T10:45:05;96820.0;;;
68446;BMP280;35789;48.414;12.768;2023-08-31T10:50:22;96830.0;;;
68446;BMP280;35789;48.414;12.768;2023-08-31T10:55:05;96820.0;;;
68446;BMP280;35789;48.414;12.768;2023-08-31T11:00:00;96820.0;;;
68446;BMP280;35789;48.414;12.768;2023-08-31T11:05:02;96830.0;;;
68446;BMP280;35789;48.414;12.768;2023-08-31T11:10:09;96830.0;;;
68446;BMP280;35789;48.414;12.768;2023-08-31T11:15:00;96820.0;;;
68446;BMP280;35789;48.414;12.768;2023-08-31T11:20:01;96820.0;;;
68446;BMP280;35789;48.414;12.768;2023-08-31T11:25:00;96810.0;;;
68446;BMP280;35789;48.414;12.768;2023-08-31T11:30:00;96810.0;;;
68446;BMP280;35789;48.414;12.768;2023-08-31T11:35:00;96810.0;;;
68446;BMP280;35789;48.414;12.768;2023-08-31T11:40:00;96810.0;;;
68446;BMP280;35789;48.414;12.768;2023-08-31T11:45:01;96800.0;;;
68446;BMP280;35789;48.414;12.768;2023-08-31T11:50:01;96800.0;;;
68446;BMP280;35789;48.414;12.768;2023-08-31T11:55:00;96800.0;;;
68446;BMP280;35789;48.414;12.768;2023-08-31T12:00:03;96790.0;;;
68446;BMP280;35789;48.414;12.768;2023-08-31T12:05:00;96800.0;;;
68446;BMP280;35789;48.414;12.768;2023-08-31T12:10:02;96800.0;;;
68446;BMP280;35789;48.414;12.768;2023-08-31T12:15:01;96810.0;;;
68446;BMP280;35789;48.414;12.768;2023-08-31T12:20:04;96810.0;;;
68446;BMP280;35789;48.414;12.768;2023-08-31T12:25:00;96820.0;;;
68446;BMP280;35789;48.414;12.768;2023-08-31T12:30:00;96820.0;;;
68446;BMP280;35789;48.414;12.768;2023-08-31T12:35:00;96810.0;;;
68446;BMP280;35789;48.414;12.768;2023-08-31T12:40:00;96800.0;;;
68446;BMP280;35789;48.414;12.768;2023-08-31T12:45:00;96810.0;;;
68446;BMP280;35789;48.414;12.768;2023-08-31T12:50:00;96810.0;;;
68446;BMP280;35789;48.414;12.768;2023-08-31T12:55:00;96800.0;;;
68446;BMP280;35789;48.414;12.768;2023-08-31T13:00:00;96800.0;;;
68446;BMP280;35789;48.414;12.768;2023-08-31T13:05:00;96800.0;;;
68446;BMP280;35789;48.414;12.768;2023-08-31T13:10:01;96800.0;;;
68446;BMP280;35789;48.414;12.768;2023-08-31T13:15:01;96800.0;;;
68446;BMP280;35789;48.414;12.768;2023-08-31T13:20:00;96800.0;;;
68446;BMP280;35789;48.414;12.768;2023-08-31T13:25:00;96800.0;;;
68446;BMP280;35789;48.414;12.768;2023-08-31T13:30:00;96800.0;;;
68446;BMP280;35789;48.414;12.768;2023-08-31T13:35:00;96800.0;;;
68446;BMP280;35789;48.414;12.768;2023-08-31T13:40:00;96800.0;;;
68446;BMP280;35789;48.414;12.768;2023-08-31T13:45:00;96790.0;;;
68446;BMP280;35789;48.414;12.768;2023-08-31T13:50:00;96790.0;;;
68446;BMP280;35789;48.414;12.768;2023-08-31T13:55:00;96800.0;;;
68446;BMP280;35789;48.414;12.768;2023-08-31T14:00:00;96800.0;;;
68446;BMP280;35789;48.414;12.768;2023-08-31T14:05:00;96800.0;;;
68446;BMP280;35789;48.414;12.768;2023-08-31T14:10:00;96790.0;;;
68446;BMP280;35789;48.414;12.768;2023-08-31T14:15:00;96790.0;;;
68446;BMP280;35789;48.414;12.768;2023-08-31T14:20:00;96800.0;;;
68446;BMP280;35789;48.414;12.768;2023-08-31T14:25:00;96790.0;;;
68446;BMP280;35789;48.414;12.768;2023-08-31T14:30:00;96790.0;;;
68446;BMP280;35789;48.414;12.768;2023-08-31T14:35:00;96800.0;;;
68446;BMP280;35789;48.414;12.768;2023-08-31T14:40:00;96800.0;;;
68446;BMP280;35789;48.414;12.768;2023-08-31T14:45:01;96800.0;;;
68446;BMP280;35789;48.414;12.768;2023-08-31T14:50:00;96800.0;;;
68446;BMP280;35789;48.414;12.768;2023-08-31T14:55:00;96810.0;;;
68446;BMP280;35789;48.414;12.768;2023-08-31T15:00:00;96820.0;;;
68446;BMP280;35789;48.414;12.768;2023-08-31T15:05:00;96810.0;;;
68446;BMP280;35789;48.414;12.768;2023-08-31T15:10:00;96810.0;;;
68446;BMP280;35789;48.414;12.768;2023-08-31T15:15:00;96810.0;;;
68446;BMP280;35789;48.414;12.768;2023-08-31T15:20:00;96820.0;;;
68446;BMP280;35789;48.414;12.768;2023-08-31T15:25:00;96820.0;;;
68446;BMP280;35789;48.414;12.768;2023-08-31T15:30:00;96830.0;;;
68446;BMP280;35789;48.414;12.768;2023-08-31T15:35:00;96830.0;;;
68446;BMP280;35789;48.414;12.768;2023-08-31T15:40:00;96830.0;;;
68446;BMP280;35789;48.414;12.768;2023-08-31T15:45:01;96840.0;;;
68446;BMP280;35789;48.414;12.768;2023-08-31T15:50:00;96840.0;;;
68446;BMP280;35789;48.414;12.768;2023-08-31T15:55:03;96840.0;;;
68446;BMP280;35789;48.414;12.768;2023-08-31T16:00:00;96840.0;;;
68446;BMP280;35789;48.414;12.768;2023-08-31T16:05:04;96840.0;;;
68446;BMP280;35789;48.414;12.768;2023-08-31T16:10:00;96840.0;;;
68446;BMP280;35789;48.414;12.768;2023-08-31T16:15:00;96840.0;;;
68446;BMP280;35789;48.414;12.768;2023-08-31T16:20:00;96850.0;;;
68446;BMP280;35789;48.414;12.768;2023-08-31T16:25:00;96840.0;;;
68446;BMP280;35789;48.414;12.768;2023-08-31T16:30:00;96840.0;;;
68446;BMP280;35789;48.414;12.768;2023-08-31T16:35:00;96850.0;;;
68446;BMP280;35789;48.414;12.768;2023-08-31T16:40:00;96850.0;;;
68446;BMP280;35789;48.414;12.768;2023-08-31T16:45:00;96860.0;;;
68446;BMP280;35789;48.414;12.768;2023-08-31T16:50:00;96860.0;;;
68446;BMP280;35789;48.414;12.768;2023-08-31T16:55:00;96850.0;;;
68446;BMP280;35789;48.414;12.768;2023-08-31T17:00:00;96860.0;;;
68446;BMP280;35789;48.414;12.768;2023-08-31T17:05:00;96860.0;;;
68446;BMP280;35789;48.414;12.768;2023-08-31T17:10:00;96860.0;;;
68446;BMP280;35789;48.414;12.768;2023-08-31T17:15:01;96870.0;;;
68446;BMP280;35789;48.414;12.768;2023-08-31T17:20:00;96860.0;;;
68446;BMP280;35789;48.414;12.768;2023-08-31T17:25:00;96860.0;;;
68446;BMP280;35789;48.414;12.768;2023-08-31T17:30:00;96860.0;;;
68446;BMP280;35789;48.414;12.768;2023-08-31T17:35:01;96860.0;;;
68446;BMP280;35789;48.414;12.768;2023-08-31T17:40:01;96860.0;;;
68446;BMP280;35789;48.414;12.768;2023-08-31T17:45:00;96860.0;;;
68446;BMP280;35789;48.414;12.768;2023-08-31T17:50:01;96870.0;;;
68446;BMP280;35789;48.414;12.768;2023-08-31T17:55:00;96870.0;;;
68446;BMP280;35789;48.414;12.768;2023-08-31T18:00:00;96870.0;;;
68446;BMP280;35789;48.414;12.768;2023-08-31T18:05:00;96870.0;;;
68446;BMP280;35789;48.414;12.768;2023-08-31T18:10:00;96880.0;;;
68446;BMP280;35789;48.414;12.768;2023-08-31T18:15:00;96880.0;;;
68446;BMP280;35789;48.414;12.768;2023-08-31T18:20:00;96890.0;;;
68446;BMP280;35789;48.414;12.768;2023-08-31T18:25:00;96900.0;;;
68446;BMP280;35789;48.414;12.768;2023-08-31T18:30:00;96900.0;;;
68446;BMP280;35789;48.414;12.768;2023-08-31T18:35:00;96900.0;;;
68446;BMP280;35789;48.414;12.768;2023-08-31T18:40:00;96900.0;;;
68446;BMP280;35789;48.414;12.768;2023-08-31T18:45:00;96900.0;;;
68446;BMP280;35789;48.414;12.768;2023-08-31T18:50:00;96900.0;;;
68446;BMP280;35789;48.414;12.768;2023-08-31T18:55:00;96910.0;;;
68446;BMP280;35789;48.414;12.768;2023-08-31T19:00:00;96910.0;;;
68446;BMP280;35789;48.414;12.768;2023-08-31T19:05:00;96920.0;;;
68446;BMP280;35789;48.414;12.768;2023-08-31T19:10:00;96930.0;;;
68446;BMP280;35789;48.414;12.768;2023-08-31T19:15:00;96930.0;;;
68446;BMP280;35789;48.414;12.768;2023-08-31T19:20:00;96930.0;;;
68446;BMP280;35789;48.414;12.768;2023-08-31T19:25:00;96920.0;;;
68446;BMP280;35789;48.414;12.768;2023-08-31T19:30:00;96930.0;;;
68446;BMP280;35789;48.414;12.768;2023-08-31T19:35:00;96930.0;;;
68446;BMP280;35789;48.414;12.768;2023-08-31T19:40:00;96940.0;;;
68446;BMP280;35789;48.414;12.768;2023-08-31T19:50:00;96950.0;;;
68446;BMP280;35789;48.414;12.768;2023-08-31T19:55:00;96960.0;;;
68446;BMP280;35789;48.414;12.768;2023-08-31T20:00:00;96960.0;;;
68446;BMP280;35789;48.414;12.768;2023-08-31T20:05:00;96960.0;;;
68446;BMP280;35789;48.414;12.768;2023-08-31T20:10:00;96970.0;;;
68446;BMP280;35789;48.414;12.768;2023-08-31T20:15:00;96960.0;;;
68446;BMP280;35789;48.414;12.768;2023-08-31T20:20:02;96960.0;;;
68446;BMP280;35789;48.414;12.768;2023-08-31T20:25:00;96970.0;;;
68446;BMP280;35789;48.414;12.768;2023-08-31T20:30:00;96970.0;;;
68446;BMP280;35789;48.414;12.768;2023-08-31T20:35:00;96970.0;;;
68446;BMP280;35789;48.414;12.768;2023-08-31T20:40:00;96960.0;;;
68446;BMP280;35789;48.414;12.768;2023-08-31T20:45:00;96970.0;;;
68446;BMP280;35789;48.414;12.768;2023-08-31T20:50:01;96970.0;;;
68446;BMP280;35789;48.414;12.768;2023-08-31T20:55:00;96980.0;;;
68446;BMP280;35789;48.414;12.768;2023-08-31T21:00:00;96980.0;;;
68446;BMP280;35789;48.414;12.768;2023-08-31T21:05:00;96980.0;;;
68446;BMP280;35789;48.414;12.768;2023-08-31T21:10:00;96970.0;;;
68446;BMP280;35789;48.414;12.768;2023-08-31T21:15:00;96960.0;;;
68446;BMP280;35789;48.414;12.768;2023-08-31T21:20:00;96960.0;;;
68446;BMP280;35789;48.414;12.768;2023-08-31T21:25:00;96970.0;;;
68446;BMP280;35789;48.414;12.768;2023-08-31T21:30:00;96970.0;;;
68446;BMP280;35789;48.414;12.768;2023-08-31T21:35:00;96980.0;;;
68446;BMP280;35789;48.414;12.768;2023-08-31T21:40:00;96990.0;;;
68446;BMP280;35789;48.414;12.768;2023-08-31T21:45:00;96990.0;;;
68446;BMP280;35789;48.414;12.768;2023-08-31T21:50:00;97000.0;;;
68446;BMP280;35789;48.414;12.768;2023-08-31T21:55:00;97000.0;;;
68446;BMP280;35789;48.414;12.768;2023-08-31T22:00:00;97010.0;;;
68446;BMP280;35789;48.414;12.768;2023-08-31T22:05:00;97010.0;;;
68446;BMP280;35789;48.414;12.768;2023-08-31T22:10:00;97020.0;;;
68446;BMP280;35789;48.414;12.768;2023-08-31T22:15:02;97010.0;;;
68446;BMP280;35789;48.414;12.768;2023-08-31T22:20:01;97020.0;;;
68446;BMP280;35789;48.414;12.768;2023-08-31T22:25:00;97010.0;;;
68446;BMP280;35789;48.414;12.768;2023-08-31T22:30:01;97010.0;;;
68446;BMP280;35789;48.414;12.768;2023-08-31T22:35:00;97010.0;;;
68446;BMP280;35789;48.414;12.768;2023-08-31T22:40:00;97010.0;;;
68446;BMP280;35789;48.414;12.768;2023-08-31T22:45:00;97010.0;;;
68446;BMP280;35789;48.414;12.768;2023-08-31T22:50:02;97020.0;;;
68446;BMP280;35789;48.414;12.768;2023-08-31T22:55:01;97020.0;;;
68446;BMP280;35789;48.414;12.768;2023-08-31T23:00:00;97020.0;;;
68446;BMP280;35789;48.414;12.768;2023-08-31T23:05:00;97020.0;;;
68446;BMP280;35789;48.414;12.768;2023-08-31T23:10:00;97020.0;;;
68446;BMP280;35789;48.414;12.768;2023-08-31T23:15:00;97020.0;;;
68446;BMP280;35789;48.414;12.768;2023-08-31T23:20:00;97030.0;;;
68446;BMP280;35789;48.414;12.768;2023-08-31T23:25:00;97020.0;;;
68446;BMP280;35789;48.414;12.768;2023-08-31T23:30:00;97010.0;;;
68446;BMP280;35789;48.414;12.768;2023-08-31T23:35:00;97010.0;;;
68446;BMP280;35789;48.414;12.768;2023-08-31T23:40:00;97010.0;;;
68446;BMP280;35789;48.414;12.768;2023-08-31T23:45:00;97000.0;;;
68446;BMP280;35789;48.414;12.768;2023-08-31T23:50:00;97000.0;;;
68446;BMP280;35789;48.414;12.768;2023-08-31T23:55:00;97000.0;;;
